Time;durP1;ratioP1;P1;durP2;ratioP2;P2;SDS_P1;SDS_P2;PMS_P1;PMS_P2;Temp;Humidity;BMP_temperature;BMP_pressure;BME280_temperature;BME280_humidity;BME280_pressure;Samples;Min_cycle;Max_cycle;Signal;HPM_P1;HPM_P2
2022/07/04 00:00:17;;;;;;;0.95;0.57;;;22.90;93.60;;;;;;4438468;32;20836;-71
2022/07/04 00:02:44;;;;;;;0.30;0.30;;;22.90;94.00;;;;;;4439318;32;20069;-71
2022/07/04 00:05:11;;;;;;;0.40;0.40;;;22.80;94.00;;;;;;4446565;32;20060;-71
2022/07/04 00:07:38;;;;;;;0.40;0.40;;;22.90;94.00;;;;;;4442098;32;20065;-71
2022/07/04 00:10:05;;;;;;;0.35;0.35;;;22.90;94.10;;;;;;4440859;32;20549;-71
2022/07/04 00:12:31;;;;;;;0.62;0.40;;;22.80;94.30;;;;;;4446091;32;20423;-71
2022/07/04 00:14:57;;;;;;;0.40;0.40;;;22.70;94.80;;;;;;4440755;32;20065;-71
2022/07/04 00:17:22;;;;;;;0.40;0.40;;;22.60;95.00;;;;;;4443756;32;20069;-70
2022/07/04 00:19:48;;;;;;;0.20;0.20;;;22.60;95.20;;;;;;4435570;32;20544;-70
2022/07/04 00:22:13;;;;;;;0.40;0.40;;;22.60;95.40;;;;;;4432255;32;20941;-70
2022/07/04 00:24:39;;;;;;;0.80;0.60;;;22.50;95.60;;;;;;4425175;32;20101;-71
2022/07/04 00:27:05;;;;;;;0.22;0.22;;;22.40;96.00;;;;;;4445259;32;20072;-71
2022/07/04 00:29:31;;;;;;;0.40;0.40;;;22.30;96.30;;;;;;4435086;32;20073;-72
2022/07/04 00:31:56;;;;;;;0.40;0.40;;;22.30;96.40;;;;;;4443784;32;20566;-72
2022/07/04 00:34:22;;;;;;;0.32;0.32;;;22.30;96.60;;;;;;4437686;32;20073;-70
2022/07/04 00:36:47;;;;;;;0.30;0.30;;;22.20;96.70;;;;;;4439791;32;20057;-71
2022/07/04 00:39:13;;;;;;;0.30;0.30;;;22.30;96.80;;;;;;4435877;32;20081;-70
2022/07/04 00:41:38;;;;;;;0.20;0.20;;;22.10;97.20;;;;;;4447063;32;20073;-71
2022/07/04 00:44:06;;;;;;;0.30;0.30;;;22.20;97.20;;;;;;4440415;32;20204;-71
2022/07/04 00:46:32;;;;;;;0.70;0.65;;;22.00;97.80;;;;;;4440376;32;20124;-70
2022/07/04 00:48:58;;;;;;;0.20;0.20;;;21.90;98.20;;;;;;4442404;32;20115;-71
2022/07/04 00:51:25;;;;;;;0.28;0.28;;;21.80;98.70;;;;;;4437297;32;20323;-71
2022/07/04 00:53:52;;;;;;;0.30;0.30;;;21.90;98.80;;;;;;4418970;32;20094;-71
2022/07/04 00:56:17;;;;;;;0.40;0.40;;;21.90;98.80;;;;;;4438473;32;20100;-71
2022/07/04 00:58:43;;;;;;;0.37;0.37;;;21.90;98.80;;;;;;4439915;32;20064;-71
2022/07/04 01:01:09;;;;;;;0.40;0.40;;;21.90;99.00;;;;;;4439613;32;20138;-71
2022/07/04 01:03:34;;;;;;;0.47;0.47;;;21.90;99.50;;;;;;4437797;32;20070;-71
2022/07/04 01:06:00;;;;;;;1.55;0.32;;;21.90;99.40;;;;;;4437579;32;20504;-71
2022/07/04 01:08:26;;;;;;;0.30;0.30;;;21.70;99.90;;;;;;4439381;32;20077;-71
2022/07/04 01:10:52;;;;;;;0.60;0.45;;;21.80;99.90;;;;;;4436738;32;20542;-71
2022/07/04 01:13:21;;;;;;;0.30;0.30;;;21.70;99.90;;;;;;4438388;32;20104;-71
2022/07/04 01:15:46;;;;;;;0.50;0.50;;;21.70;99.90;;;;;;4437137;32;20089;-70
2022/07/04 01:18:12;;;;;;;0.40;0.40;;;21.50;99.90;;;;;;4438783;32;20073;-70
2022/07/04 01:20:38;;;;;;;0.30;0.30;;;21.60;99.90;;;;;;4437682;32;20140;-71
2022/07/04 01:23:03;;;;;;;0.35;0.35;;;21.60;99.90;;;;;;4420231;32;20097;-71
2022/07/04 01:25:30;;;;;;;0.30;0.30;;;21.50;99.90;;;;;;4430504;32;20567;-71
2022/07/04 01:27:55;;;;;;;2.03;0.60;;;21.50;99.90;;;;;;4440692;32;20069;-70
2022/07/04 01:30:21;;;;;;;0.20;0.20;;;21.40;99.90;;;;;;4439074;32;20116;-71
2022/07/04 01:32:46;;;;;;;0.30;0.30;;;21.30;99.90;;;;;;4439830;32;105850;-70
2022/07/04 01:35:12;;;;;;;0.20;0.20;;;21.20;99.90;;;;;;4437995;32;20100;-70
2022/07/04 01:37:38;;;;;;;0.40;0.40;;;21.10;99.90;;;;;;4442745;32;20085;-71
2022/07/04 01:40:05;;;;;;;0.30;0.30;;;21.00;99.90;;;;;;4435830;32;20081;-70
2022/07/04 01:42:30;;;;;;;0.45;0.45;;;20.90;99.90;;;;;;4439712;32;20177;-70
2022/07/04 01:44:56;;;;;;;0.32;0.32;;;20.90;99.90;;;;;;4438830;32;20457;-70
2022/07/04 01:47:21;;;;;;;0.50;0.50;;;20.80;99.90;;;;;;4439553;32;20131;-70
2022/07/04 01:49:47;;;;;;;0.30;0.30;;;20.90;99.90;;;;;;4441182;32;20081;-70
2022/07/04 01:52:13;;;;;;;0.82;0.80;;;20.70;99.90;;;;;;4421972;32;20128;-70
2022/07/04 01:54:39;;;;;;;3.70;0.65;;;20.70;99.90;;;;;;4419214;32;20159;-71
2022/07/04 01:57:05;;;;;;;0.62;0.43;;;20.60;99.90;;;;;;4446869;32;20088;-71
2022/07/04 02:01:31;;;;;;;2.10;0.55;;;20.50;99.90;;;;;;4433973;32;20122;-71
2022/07/04 02:02:16;;;;;;;0.32;0.32;;;20.60;99.90;;;;;;4431861;32;20492;-70
2022/07/04 02:04:42;;;;;;;0.88;0.57;;;20.50;99.90;;;;;;4435429;32;20101;-70
2022/07/04 02:07:07;;;;;;;0.68;0.68;;;20.40;99.90;;;;;;4443099;32;20084;-70
2022/07/04 02:09:33;;;;;;;0.40;0.40;;;20.40;99.90;;;;;;4436850;32;20073;-71
2022/07/04 02:13:01;;;;;;;0.40;0.40;;;20.30;99.90;;;;;;4440816;32;20140;-71
2022/07/04 02:14:44;;;;;;;0.50;0.50;;;20.20;99.90;;;;;;4432710;32;20080;-72
2022/07/04 02:17:10;;;;;;;0.40;0.40;;;20.30;99.90;;;;;;4440119;32;20123;-71
2022/07/04 02:19:36;;;;;;;0.43;0.37;;;20.20;99.90;;;;;;4443176;32;20077;-71
2022/07/04 02:22:02;;;;;;;0.68;0.60;;;20.20;99.90;;;;;;4419744;32;20768;-71
2022/07/04 02:24:28;;;;;;;0.30;0.30;;;20.00;99.90;;;;;;4427712;32;20595;-71
2022/07/04 02:26:53;;;;;;;0.30;0.30;;;19.80;99.90;;;;;;4441725;32;20088;-71
2022/07/04 02:29:19;;;;;;;0.35;0.35;;;19.70;99.90;;;;;;4437186;32;20105;-71
2022/07/04 02:31:44;;;;;;;2.17;1.05;;;19.60;99.90;;;;;;4442088;32;20073;-71
2022/07/04 02:34:11;;;;;;;0.30;0.30;;;19.60;99.90;;;;;;4437794;32;20093;-71
2022/07/04 02:36:36;;;;;;;0.50;0.50;;;19.70;99.90;;;;;;4442280;32;20077;-71
2022/07/04 02:39:02;;;;;;;0.88;0.60;;;19.60;99.90;;;;;;4434950;32;20077;-72
2022/07/04 02:41:28;;;;;;;0.30;0.30;;;19.50;99.90;;;;;;4435279;32;20069;-72
2022/07/04 02:43:53;;;;;;;0.55;0.55;;;19.60;99.90;;;;;;4434599;32;20076;-71
2022/07/04 02:46:19;;;;;;;0.60;0.60;;;19.60;99.90;;;;;;4436706;32;20073;-71
2022/07/04 02:48:44;;;;;;;0.30;0.30;;;19.60;99.90;;;;;;4436516;32;20057;-71
2022/07/04 02:51:10;;;;;;;0.75;0.50;;;19.40;99.90;;;;;;4428890;32;20069;-71
2022/07/04 02:53:35;;;;;;;0.50;0.50;;;19.40;99.90;;;;;;4415542;32;20116;-71
2022/07/04 02:56:03;;;;;;;0.50;0.50;;;19.40;99.90;;;;;;4435755;32;20096;-69
2022/07/04 02:58:30;;;;;;;0.70;0.70;;;19.50;99.90;;;;;;4438434;32;20065;-69
2022/07/04 03:00:55;;;;;;;0.43;0.43;;;19.50;99.90;;;;;;4437757;32;20467;-69
2022/07/04 03:03:21;;;;;;;0.30;0.30;;;19.50;99.90;;;;;;4440324;32;20118;-71
2022/07/04 03:05:47;;;;;;;0.30;0.30;;;19.50;99.90;;;;;;4438431;32;20550;-70
2022/07/04 03:08:12;;;;;;;27.13;0.62;;;19.40;99.90;;;;;;4441940;32;20073;-70
2022/07/04 03:10:38;;;;;;;0.75;0.50;;;19.30;99.90;;;;;;4434154;32;20085;-70
2022/07/04 03:13:03;;;;;;;3.42;0.60;;;19.20;99.90;;;;;;4437494;32;20088;-70
2022/07/04 03:15:29;;;;;;;0.70;0.70;;;19.20;99.90;;;;;;4436196;32;20061;-70
2022/07/04 03:17:54;;;;;;;0.40;0.40;;;19.10;99.90;;;;;;4436140;32;20069;-71
2022/07/04 03:20:19;;;;;;;0.82;0.50;;;19.10;99.90;;;;;;4445634;32;20097;-70
2022/07/04 03:22:45;;;;;;;0.40;0.40;;;19.20;99.90;;;;;;4421916;32;20111;-70
2022/07/04 03:25:10;;;;;;;0.70;0.70;;;19.20;99.90;;;;;;4421735;32;20529;-70
2022/07/04 03:27:36;;;;;;;0.43;0.43;;;19.20;99.90;;;;;;4441758;32;20068;-70
2022/07/04 03:30:02;;;;;;;3.00;0.65;;;19.10;99.90;;;;;;4444205;32;20532;-70
2022/07/04 03:32:27;;;;;;;0.50;0.50;;;19.20;99.90;;;;;;4442176;32;20073;-70
2022/07/04 03:34:53;;;;;;;0.30;0.30;;;19.10;99.90;;;;;;4435197;32;20101;-70
2022/07/04 03:37:18;;;;;;;0.82;0.50;;;19.10;99.90;;;;;;4443666;32;20098;-70
2022/07/04 03:39:43;;;;;;;3.20;0.93;;;18.90;99.90;;;;;;4435580;32;20061;-70
2022/07/04 03:42:09;;;;;;;0.45;0.45;;;19.00;99.90;;;;;;4439100;32;20068;-70
2022/07/04 03:44:34;;;;;;;0.45;0.45;;;19.00;99.90;;;;;;4439302;32;20064;-70
2022/07/04 03:47:01;;;;;;;1.52;0.82;;;19.00;99.90;;;;;;4441953;32;20567;-70
2022/07/04 03:49:26;;;;;;;0.40;0.40;;;19.00;99.90;;;;;;4437827;32;20124;-70
2022/07/04 03:51:52;;;;;;;0.40;0.40;;;19.10;99.90;;;;;;4426050;32;20077;-71
2022/07/04 03:54:17;;;;;;;0.40;0.40;;;19.00;99.90;;;;;;4417428;32;20056;-70
2022/07/04 03:56:43;;;;;;;0.45;0.45;;;18.80;99.90;;;;;;4440041;32;20073;-70
2022/07/04 03:59:08;;;;;;;0.60;0.57;;;18.70;99.90;;;;;;4441526;32;20061;-70
2022/07/04 04:01:33;;;;;;;0.40;0.40;;;18.80;99.90;;;;;;4439441;32;20088;-70
2022/07/04 04:05:32;;;;;;;0.47;0.47;;;18.90;99.90;;;;;;4437363;32;20084;-70
2022/07/04 04:06:44;;;;;;;0.40;0.40;;;18.90;99.90;;;;;;4435593;32;20101;-70
2022/07/04 04:09:16;;;;;;;0.60;0.60;;;18.70;99.90;;;;;;4437102;32;20125;-70
2022/07/04 04:11:42;;;;;;;0.52;0.52;;;18.70;99.90;;;;;;4445472;32;21339;-70
2022/07/04 04:14:07;;;;;;;0.40;0.40;;;18.70;99.90;;;;;;4436331;32;20068;-70
2022/07/04 04:16:33;;;;;;;0.57;0.57;;;18.80;99.90;;;;;;4440112;32;20061;-70
2022/07/04 04:18:58;;;;;;;0.80;0.80;;;18.70;99.90;;;;;;4432101;32;20540;-70
2022/07/04 04:21:24;;;;;;;0.37;0.37;;;18.70;99.90;;;;;;4421605;32;20081;-70
2022/07/04 04:23:50;;;;;;;0.95;0.75;;;18.60;99.90;;;;;;4388761;32;20560;-70
2022/07/04 04:26:16;;;;;;;0.40;0.40;;;18.70;99.90;;;;;;4402335;32;20163;-70
2022/07/04 04:28:41;;;;;;;0.52;0.50;;;18.80;99.90;;;;;;4402334;32;20562;-70
2022/07/04 04:31:08;;;;;;;1.00;0.75;;;18.80;99.90;;;;;;4396546;32;20076;-70
2022/07/04 04:33:35;;;;;;;0.50;0.50;;;18.90;99.90;;;;;;4408898;32;20288;-70
2022/07/04 04:36:01;;;;;;;0.47;0.47;;;18.90;99.90;;;;;;4433134;32;20089;-70
2022/07/04 04:38:27;;;;;;;0.77;0.75;;;18.90;99.90;;;;;;4442277;32;20110;-70
2022/07/04 04:40:52;;;;;;;3.35;0.90;;;18.80;99.90;;;;;;4448303;32;20073;-70
2022/07/04 04:43:17;;;;;;;0.35;0.35;;;18.80;99.90;;;;;;4442248;32;20138;-70
2022/07/04 04:45:43;;;;;;;0.57;0.57;;;18.90;99.90;;;;;;4439981;32;20109;-70
2022/07/04 04:48:09;;;;;;;0.40;0.40;;;18.90;99.90;;;;;;4441856;32;20068;-70
2022/07/04 04:50:34;;;;;;;1.37;0.70;;;18.90;99.90;;;;;;4436265;32;20826;-70
2022/07/04 04:53:00;;;;;;;0.90;0.55;;;18.90;99.90;;;;;;4402923;32;20167;-70
2022/07/04 04:55:26;;;;;;;0.45;0.45;;;18.90;99.90;;;;;;4401779;32;20092;-70
2022/07/04 04:57:51;;;;;;;0.40;0.40;;;18.90;99.90;;;;;;4439830;32;20128;-70
2022/07/04 05:00:17;;;;;;;0.62;0.60;;;19.00;99.90;;;;;;4435807;32;20064;-70
2022/07/04 05:02:42;;;;;;;0.90;0.73;;;18.90;99.90;;;;;;4422317;32;20608;-70
2022/07/04 05:05:08;;;;;;;0.82;0.73;;;19.00;99.90;;;;;;4404971;32;20353;-70
2022/07/04 05:07:35;;;;;;;0.43;0.43;;;19.10;99.90;;;;;;4396217;32;20084;-71
2022/07/04 05:10:01;;;;;;;1.30;0.98;;;19.10;99.90;;;;;;4382511;32;20455;-70
2022/07/04 05:12:26;;;;;;;0.32;0.32;;;19.00;99.90;;;;;;4390402;32;20346;-70
2022/07/04 05:14:53;;;;;;;1.87;1.00;;;19.00;99.90;;;;;;4390160;32;20695;-70
2022/07/04 05:17:19;;;;;;;0.45;0.43;;;19.20;99.90;;;;;;4399335;32;20089;-70
2022/07/04 05:19:44;;;;;;;0.22;0.22;;;19.20;99.90;;;;;;4338988;32;20968;-70
2022/07/04 05:22:11;;;;;;;1.95;0.75;;;19.40;99.90;;;;;;4343491;32;20374;-70
2022/07/04 05:24:39;;;;;;;0.40;0.40;;;19.40;99.90;;;;;;4324452;32;20402;-70
2022/07/04 05:27:06;;;;;;;0.37;0.37;;;19.40;99.90;;;;;;4347416;32;20507;-71
2022/07/04 05:29:31;;;;;;;0.40;0.40;;;19.30;99.90;;;;;;4333835;32;20730;-70
2022/07/04 05:31:57;;;;;;;0.40;0.40;;;19.40;99.90;;;;;;4339072;32;20462;-70
2022/07/04 05:34:32;;;;;;;0.30;0.30;;;19.50;99.90;;;;;;4359912;32;20152;-70
2022/07/04 05:36:58;;;;;;;0.45;0.45;;;19.50;99.90;;;;;;4359462;32;20351;-70
2022/07/04 05:39:24;;;;;;;0.70;0.60;;;19.50;99.90;;;;;;4364336;32;20342;-70
2022/07/04 05:41:50;;;;;;;0.52;0.52;;;19.50;99.90;;;;;;4373500;32;20148;-70
2022/07/04 05:44:15;;;;;;;0.35;0.35;;;19.50;99.90;;;;;;4388912;32;20156;-70
2022/07/04 05:46:43;;;;;;;0.70;0.40;;;19.60;99.90;;;;;;4404478;32;20080;-70
2022/07/04 05:49:08;;;;;;;0.40;0.40;;;19.50;99.90;;;;;;4396242;32;20068;-69
2022/07/04 05:51:34;;;;;;;0.55;0.50;;;19.60;99.90;;;;;;4397353;32;20105;-70
2022/07/04 05:53:59;;;;;;;0.43;0.43;;;19.70;99.90;;;;;;4401789;32;20130;-70
2022/07/04 05:56:25;;;;;;;0.32;0.32;;;19.60;99.90;;;;;;4409792;32;20111;-70
2022/07/04 05:58:52;;;;;;;0.40;0.40;;;19.50;99.90;;;;;;4413942;32;20450;-70
2022/07/04 06:01:17;;;;;;;1.00;0.43;;;19.60;99.90;;;;;;4403156;32;20608;-70
2022/07/04 06:03:43;;;;;;;0.30;0.30;;;19.60;99.90;;;;;;4385692;32;20131;-70
2022/07/04 06:06:09;;;;;;;0.30;0.30;;;19.60;99.90;;;;;;4397927;32;20082;-70
2022/07/04 06:08:34;;;;;;;0.37;0.37;;;19.70;99.90;;;;;;4415351;32;20563;-70
2022/07/04 06:11:00;;;;;;;0.20;0.20;;;19.80;99.90;;;;;;4416268;32;20097;-70
2022/07/04 06:13:27;;;;;;;0.40;0.40;;;19.80;99.90;;;;;;4416980;32;20172;-70
2022/07/04 06:15:52;;;;;;;0.52;0.52;;;19.70;99.90;;;;;;4428099;32;20195;-70
2022/07/04 06:18:18;;;;;;;0.30;0.30;;;19.80;99.90;;;;;;4414586;32;20340;-70
2022/07/04 06:20:43;;;;;;;0.52;0.52;;;19.90;99.90;;;;;;4398196;32;20072;-70
2022/07/04 06:23:09;;;;;;;0.55;0.55;;;20.00;99.90;;;;;;4406718;32;20583;-70
2022/07/04 06:25:34;;;;;;;0.30;0.30;;;20.10;99.90;;;;;;4421487;32;20103;-70
2022/07/04 06:28:00;;;;;;;0.32;0.32;;;20.10;99.90;;;;;;4426525;32;20595;-72
2022/07/04 06:30:27;;;;;;;0.40;0.40;;;20.20;99.90;;;;;;4397113;32;20096;-69
2022/07/04 06:32:55;;;;;;;1.17;0.60;;;20.30;99.90;;;;;;4386422;32;20353;-72
2022/07/04 06:35:58;;;;;;;0.30;0.30;;;20.20;99.90;;;;;;4392220;32;20098;-70
2022/07/04 06:38:16;;;;;;;0.22;0.22;;;20.30;99.90;;;;;;4403644;32;20080;-69
2022/07/04 06:40:42;;;;;;;0.40;0.40;;;20.40;99.90;;;;;;4421355;32;20057;-69
2022/07/04 06:43:08;;;;;;;0.30;0.30;;;20.40;99.90;;;;;;4422952;32;20114;-70
2022/07/04 06:45:34;;;;;;;0.30;0.30;;;20.30;99.90;;;;;;4416759;32;20402;-70
2022/07/04 06:48:00;;;;;;;0.20;0.20;;;20.40;99.90;;;;;;4415253;32;20465;-71
2022/07/04 06:50:26;;;;;;;0.20;0.20;;;20.50;99.90;;;;;;4395388;32;20101;-70
2022/07/04 06:52:52;;;;;;;0.50;0.50;;;20.60;99.90;;;;;;4399819;32;20088;-70
2022/07/04 06:55:18;;;;;;;0.25;0.25;;;20.60;99.90;;;;;;4411305;32;20831;-70
2022/07/04 06:57:43;;;;;;;0.20;0.20;;;20.50;99.90;;;;;;4416157;32;20061;-70
2022/07/04 07:00:09;;;;;;;0.20;0.20;;;20.50;99.90;;;;;;4395261;32;20110;-70
2022/07/04 07:02:35;;;;;;;0.40;0.40;;;20.60;99.90;;;;;;4381781;32;20372;-70
2022/07/04 07:05:02;;;;;;;0.20;0.20;;;20.60;99.90;;;;;;4388715;32;20125;-69
2022/07/04 07:07:27;;;;;;;0.70;0.57;;;20.60;99.90;;;;;;4401449;32;20240;-72
2022/07/04 07:09:54;;;;;;;0.30;0.30;;;20.70;99.90;;;;;;4409101;32;20620;-71
2022/07/04 07:12:20;;;;;;;0.30;0.30;;;20.90;99.90;;;;;;4419560;32;20223;-72
2022/07/04 07:14:46;;;;;;;0.20;0.20;;;20.80;99.90;;;;;;4418728;32;20419;-71
2022/07/04 07:17:11;;;;;;;0.40;0.40;;;21.00;99.90;;;;;;4417479;32;20081;-71
2022/07/04 07:19:37;;;;;;;0.25;0.25;;;20.90;99.90;;;;;;4387105;32;20158;-71
2022/07/04 07:22:02;;;;;;;0.30;0.30;;;20.90;99.90;;;;;;4382990;32;20077;-71
2022/07/04 07:24:30;;;;;;;0.30;0.30;;;21.00;99.90;;;;;;4410740;32;20204;-71
2022/07/04 07:26:56;;;;;;;0.22;0.22;;;21.10;99.90;;;;;;4418817;32;20094;-70
2022/07/04 07:29:22;;;;;;;0.32;0.32;;;20.90;99.90;;;;;;4404457;32;20349;-71
2022/07/04 07:31:47;;;;;;;0.20;0.20;;;21.10;99.90;;;;;;4397792;32;20253;-71
2022/07/04 07:34:13;;;;;;;0.30;0.28;;;21.20;99.90;;;;;;4381720;32;20571;-71
2022/07/04 07:36:38;;;;;;;0.20;0.20;;;21.40;99.90;;;;;;4395035;32;20228;-71
2022/07/04 07:39:04;;;;;;;0.32;0.32;;;21.70;99.90;;;;;;4419960;32;20112;-71
2022/07/04 07:41:30;;;;;;;0.25;0.25;;;21.90;99.90;;;;;;4417817;32;20073;-71
2022/07/04 07:43:55;;;;;;;0.28;0.28;;;22.00;99.90;;;;;;4412594;32;20164;-71
2022/07/04 07:46:21;;;;;;;0.55;0.35;;;21.90;99.90;;;;;;4417795;32;20253;-71
2022/07/04 07:48:46;;;;;;;0.30;0.30;;;21.90;99.90;;;;;;4399511;32;20113;-71
2022/07/04 07:51:13;;;;;;;0.30;0.30;;;21.80;99.90;;;;;;4392263;32;20076;-71
2022/07/04 07:53:39;;;;;;;0.25;0.25;;;21.70;99.90;;;;;;4400409;32;20515;-71
2022/07/04 07:56:05;;;;;;;0.22;0.22;;;21.50;99.90;;;;;;4428737;32;20673;-71
2022/07/04 07:58:30;;;;;;;0.15;0.15;;;21.30;99.90;;;;;;4415212;32;20431;-71
2022/07/04 08:00:55;;;;;;;0.30;0.30;;;21.30;99.90;;;;;;4400471;32;21406;-71
2022/07/04 08:04:52;;;;;;;0.20;0.20;;;21.40;99.90;;;;;;4387077;32;20699;-71
2022/07/04 08:06:07;;;;;;;0.25;0.25;;;21.40;99.90;;;;;;4386184;32;20265;-71
2022/07/04 08:08:33;;;;;;;0.37;0.37;;;21.40;99.90;;;;;;4406602;32;20750;-71
2022/07/04 08:10:58;;;;;;;0.30;0.30;;;21.50;99.90;;;;;;4412440;32;20100;-71
2022/07/04 08:13:24;;;;;;;0.20;0.20;;;21.50;99.90;;;;;;4408248;32;20617;-71
2022/07/04 08:15:49;;;;;;;0.55;0.55;;;21.50;99.90;;;;;;4397288;32;20184;-71
2022/07/04 08:18:16;;;;;;;0.30;0.30;;;21.40;99.90;;;;;;4394071;32;20086;-71
2022/07/04 08:20:42;;;;;;;0.25;0.25;;;21.30;99.90;;;;;;4386194;32;20585;-71
2022/07/04 08:23:07;;;;;;;0.30;0.30;;;21.20;99.90;;;;;;4390668;32;20400;-71
2022/07/04 08:25:33;;;;;;;0.30;0.30;;;21.40;99.90;;;;;;4415725;32;20094;-71
2022/07/04 08:27:58;;;;;;;0.20;0.20;;;21.40;99.90;;;;;;4418267;32;20334;-71
2022/07/04 08:30:24;;;;;;;0.47;0.30;;;21.50;99.90;;;;;;4393170;32;20802;-72
2022/07/04 08:32:50;;;;;;;0.20;0.20;;;21.70;99.90;;;;;;4389587;32;20117;-71
2022/07/04 08:35:15;;;;;;;0.47;0.47;;;21.80;99.90;;;;;;4380846;32;20841;-71
2022/07/04 08:37:41;;;;;;;0.20;0.20;;;21.80;99.90;;;;;;4390951;32;20817;-72
2022/07/04 08:40:08;;;;;;;0.20;0.20;;;22.00;99.90;;;;;;4406421;32;20280;-72
2022/07/04 08:42:37;;;;;;;0.30;0.30;;;22.40;99.90;;;;;;4407287;32;21291;-72
2022/07/04 08:45:03;;;;;;;0.20;0.20;;;22.60;99.90;;;;;;4409380;32;20085;-72
2022/07/04 08:47:32;;;;;;;0.30;0.30;;;22.70;99.90;;;;;;4407159;32;20423;-72
2022/07/04 08:50:18;;;;;;;0.20;0.20;;;22.90;99.90;;;;;;4397419;32;20139;-71
2022/07/04 08:52:53;;;;;;;0.32;0.32;;;23.10;99.90;;;;;;4399784;32;20089;-72
2022/07/04 08:58:37;;;;;;;0.20;0.20;;;23.50;99.90;;;;;;4424816;32;20642;-71
2022/07/04 09:00:53;;;;;;;0.50;0.50;;;23.40;99.90;;;;;;4408093;32;20183;-72
2022/07/04 09:03:19;;;;;;;0.30;0.30;;;23.50;99.90;;;;;;4395250;32;20837;-72
2022/07/04 09:05:45;;;;;;;1.45;0.55;;;23.50;99.60;;;;;;4384093;32;20125;-72
2022/07/04 09:08:11;;;;;;;0.20;0.20;;;23.30;99.90;;;;;;4401468;32;20112;-72
2022/07/04 09:10:37;;;;;;;0.37;0.37;;;23.30;99.90;;;;;;4412122;32;20088;-72
2022/07/04 09:13:05;;;;;;;0.20;0.20;;;23.10;99.90;;;;;;4408443;32;20073;-72
2022/07/04 09:15:31;;;;;;;0.20;0.20;;;23.10;99.90;;;;;;4413039;32;20094;-68
2022/07/04 09:17:57;;;;;;;0.22;0.22;;;23.20;99.90;;;;;;4398464;32;20259;-72
2022/07/04 09:20:24;;;;;;;1.85;0.77;;;23.40;99.20;;;;;;4406774;32;20498;-72
2022/07/04 09:22:51;;;;;;;0.30;0.30;;;23.50;99.90;;;;;;4400271;32;20415;-72
2022/07/04 09:25:18;;;;;;;0.20;0.20;;;23.50;99.60;;;;;;4422210;32;20105;-72
2022/07/04 09:27:47;;;;;;;1.48;0.30;;;23.60;98.80;;;;;;4432910;32;20089;-72
2022/07/04 09:30:14;;;;;;;0.13;0.13;;;23.80;98.10;;;;;;4410996;32;20105;-72
2022/07/04 09:32:44;;;;;;;0.40;0.40;;;23.90;98.00;;;;;;4396546;32;20163;-72
2022/07/04 09:35:13;;;;;;;0.20;0.20;;;24.20;98.00;;;;;;4385158;32;20708;-72
2022/07/04 09:37:42;;;;;;;0.20;0.20;;;23.90;97.00;;;;;;4389194;32;20251;-72
2022/07/04 09:40:10;;;;;;;0.85;0.77;;;23.80;97.60;;;;;;4408222;32;20446;-72
2022/07/04 09:42:37;;;;;;;0.68;0.60;;;23.80;97.10;;;;;;4412154;32;20061;-72
2022/07/04 09:45:06;;;;;;;0.28;0.28;;;23.80;96.30;;;;;;4413824;32;20517;-72
2022/07/04 09:47:31;;;;;;;0.30;0.30;;;24.00;96.70;;;;;;4407205;32;21243;-72
2022/07/04 09:50:19;;;;;;;0.98;0.65;;;24.00;96.60;;;;;;4392509;32;20155;-71
2022/07/04 09:53:04;;;;;;;0.13;0.13;;;24.00;93.90;;;;;;4393825;32;20081;-72
2022/07/04 09:55:31;;;;;;;0.10;0.10;;;24.00;95.00;;;;;;4395636;32;20272;-73
2022/07/04 09:58:00;;;;;;;0.20;0.20;;;24.10;95.60;;;;;;4406864;32;20537;-72
2022/07/04 10:00:28;;;;;;;0.30;0.30;;;24.00;96.40;;;;;;4398465;32;20481;-72
2022/07/04 10:02:56;;;;;;;1.40;0.40;;;24.20;96.90;;;;;;4394510;32;20093;-73
2022/07/04 10:05:24;;;;;;;0.10;0.10;;;24.70;95.40;;;;;;4374972;32;20227;-71
2022/07/04 10:07:49;;;;;;;0.98;0.75;;;24.30;94.40;;;;;;4397261;32;20195;-71
2022/07/04 10:10:33;;;;;;;0.10;0.10;;;23.80;94.90;;;;;;4422845;32;20434;-71
2022/07/04 10:13:08;;;;;;;0.20;0.20;;;23.80;95.20;;;;;;4419903;32;20073;-72
2022/07/04 10:15:37;;;;;;;0.73;0.60;;;24.20;94.80;;;;;;4417281;32;20372;-71
2022/07/04 10:18:04;;;;;;;0.20;0.20;;;24.50;94.50;;;;;;4410628;32;20088;-72
2022/07/04 10:20:30;;;;;;;0.20;0.20;;;24.60;94.40;;;;;;4401297;32;20256;-72
2022/07/04 10:22:56;;;;;;;0.20;0.20;;;24.60;94.10;;;;;;4402117;32;20077;-73
2022/07/04 10:25:22;;;;;;;0.15;0.15;;;24.60;94.20;;;;;;4407719;32;20180;-72
2022/07/04 10:27:50;;;;;;;0.28;0.28;;;24.70;94.30;;;;;;4414904;32;20503;-70
2022/07/04 10:30:21;;;;;;;0.20;0.20;;;24.60;93.20;;;;;;4409322;32;20346;-71
2022/07/04 10:32:48;;;;;;;0.20;0.20;;;24.50;93.30;;;;;;4401543;32;20647;-71
2022/07/04 10:35:15;;;;;;;0.20;0.20;;;24.80;92.90;;;;;;4383552;32;20089;-72
2022/07/04 10:38:03;;;;;;;0.73;0.73;;;24.70;92.60;;;;;;4396719;32;20359;-75
2022/07/04 10:40:47;;;;;;;2.22;0.57;;;24.90;92.50;;;;;;4416181;32;20654;-71
2022/07/04 10:43:37;;;;;;;0.30;0.30;;;25.10;91.80;;;;;;4412351;32;20421;-71
2022/07/04 10:46:06;;;;;;;0.20;0.20;;;25.00;91.20;;;;;;4405423;32;20318;-72
2022/07/04 10:48:31;;;;;;;0.28;0.28;;;25.10;91.40;;;;;;4403734;32;20270;-71
2022/07/04 10:51:01;;;;;;;0.20;0.20;;;25.40;91.10;;;;;;4395494;32;21780;-72
2022/07/04 10:53:28;;;;;;;0.40;0.30;;;25.50;90.70;;;;;;4399507;32;20313;-72
2022/07/04 10:55:53;;;;;;;0.20;0.20;;;25.40;91.00;;;;;;4409614;32;20074;-71
2022/07/04 10:58:39;;;;;;;0.70;0.47;;;25.40;91.00;;;;;;4409116;32;20148;-71
2022/07/04 11:01:14;;;;;;;0.85;0.62;;;25.30;91.30;;;;;;4409102;32;20099;-72
2022/07/04 11:03:50;;;;;;;0.20;0.20;;;25.00;91.40;;;;;;4387320;32;20085;-72
2022/07/04 11:06:36;;;;;;;0.25;0.25;;;24.80;91.50;;;;;;4390613;32;20286;-72
2022/07/04 11:09:23;;;;;;;3.67;0.75;;;24.50;91.80;;;;;;4413879;32;20093;-72
2022/07/04 11:11:56;;;;;;;0.20;0.20;;;24.20;92.40;;;;;;4418996;32;20080;-71
2022/07/04 11:14:43;;;;;;;0.20;0.20;;;24.10;92.10;;;;;;4414142;32;20873;-71
2022/07/04 11:17:11;;;;;;;0.22;0.22;;;24.00;91.90;;;;;;4412832;32;20148;-71
2022/07/04 11:19:37;;;;;;;0.20;0.20;;;23.90;92.10;;;;;;4394283;32;20377;-71
2022/07/04 11:22:05;;;;;;;0.20;0.20;;;24.00;92.00;;;;;;4397445;32;20487;-71
2022/07/04 11:24:31;;;;;;;0.15;0.15;;;24.00;92.60;;;;;;4414045;32;20127;-72
2022/07/04 11:26:57;;;;;;;0.20;0.20;;;24.50;92.20;;;;;;4415218;32;20164;-72
2022/07/04 11:29:24;;;;;;;0.20;0.20;;;24.80;92.10;;;;;;4417200;32;20061;-72
2022/07/04 11:31:51;;;;;;;0.17;0.17;;;25.20;91.20;;;;;;4414046;32;20151;-72
2022/07/04 11:34:18;;;;;;;0.20;0.20;;;25.70;90.20;;;;;;4391413;32;20139;-72
2022/07/04 11:36:46;;;;;;;0.10;0.10;;;26.10;89.70;;;;;;4396973;32;20436;-71
2022/07/04 11:39:19;;;;;;;0.10;0.10;;;26.50;88.70;;;;;;4414318;32;20102;-71
2022/07/04 11:45:07;;;;;;;0.20;0.20;;;27.60;87.50;;;;;;4405081;32;20278;-72
2022/07/04 11:47:23;;;;;;;0.10;0.10;;;28.10;85.30;;;;;;4406747;32;20366;-72
2022/07/04 11:49:52;;;;;;;0.00;0.00;;;28.30;82.90;;;;;;4386420;32;20097;-72
2022/07/04 11:52:23;;;;;;;0.05;0.05;;;28.80;82.00;;;;;;4397481;32;20093;-72
2022/07/04 11:54:50;;;;;;;0.17;0.17;;;28.60;81.50;;;;;;4417088;32;20081;-72
2022/07/04 11:57:18;;;;;;;0.17;0.17;;;28.00;83.30;;;;;;4412921;32;20440;-72
2022/07/04 11:59:52;;;;;;;1.45;0.60;;;27.70;84.10;;;;;;4415062;32;20605;-71
2022/07/04 12:02:18;;;;;;;0.10;0.10;;;27.40;84.90;;;;;;4404231;32;20474;-71
2022/07/04 12:04:43;;;;;;;0.00;0.00;;;27.20;84.80;;;;;;4384542;32;20644;-71
2022/07/04 12:07:11;;;;;;;3.50;0.30;;;27.70;83.00;;;;;;4396413;32;20170;-71
2022/07/04 12:09:36;;;;;;;0.13;0.13;;;27.30;81.90;;;;;;4416153;32;20603;-71
2022/07/04 12:12:02;;;;;;;1.80;0.20;;;27.00;83.20;;;;;;4413579;32;20159;-71
2022/07/04 12:14:28;;;;;;;0.10;0.10;;;27.10;82.10;;;;;;4417493;32;20131;-72
2022/07/04 12:17:18;;;;;;;0.00;0.00;;;27.50;82.30;;;;;;4416951;32;20101;-72
2022/07/04 12:20:01;;;;;;;0.00;0.00;;;28.20;78.90;;;;;;4387854;32;20213;-71
2022/07/04 12:22:34;;;;;;;0.20;0.20;;;28.20;78.60;;;;;;4397266;32;20089;-71
2022/07/04 12:25:00;;;;;;;0.00;0.00;;;27.40;78.70;;;;;;4405985;32;20073;-72
2022/07/04 12:27:27;;;;;;;3.62;0.30;;;27.40;80.60;;;;;;4412560;32;20077;-71
2022/07/04 12:29:54;;;;;;;0.10;0.10;;;28.30;78.40;;;;;;4410194;32;20098;-72
2022/07/04 12:32:20;;;;;;;0.20;0.20;;;28.70;76.60;;;;;;4407763;32;20101;-71
2022/07/04 12:34:46;;;;;;;0.00;0.00;;;29.20;74.60;;;;;;4384499;32;20201;-71
2022/07/04 12:37:13;;;;;;;0.00;0.00;;;29.00;73.10;;;;;;4396477;32;20077;-71
2022/07/04 12:39:41;;;;;;;0.08;0.08;;;28.90;73.60;;;;;;4417403;32;20564;-71
2022/07/04 12:42:09;;;;;;;0.88;0.50;;;29.00;72.00;;;;;;4415356;32;20081;-71
2022/07/04 12:44:36;;;;;;;0.10;0.10;;;29.20;72.40;;;;;;4414066;32;20140;-71
2022/07/04 12:47:03;;;;;;;0.17;0.17;;;29.60;70.50;;;;;;4414228;32;20542;-71
2022/07/04 12:49:29;;;;;;;0.13;0.13;;;29.10;71.60;;;;;;4390048;32;20065;-71
2022/07/04 12:52:13;;;;;;;0.10;0.10;;;29.70;69.40;;;;;;4392093;32;20431;-71
2022/07/04 12:54:39;;;;;;;0.00;0.00;;;30.20;66.80;;;;;;4399700;32;20168;-71